createdAt,value
2018-09-16T00:02:23.482Z,11.57
2018-09-16T00:04:52.049Z,9.70
2018-09-16T00:07:20.773Z,9.60
2018-09-16T00:09:49.406Z,10.50
2018-09-16T00:12:18.170Z,9.90
2018-09-16T00:14:46.952Z,10.68
2018-09-16T00:17:15.615Z,10.08
2018-09-16T00:19:44.246Z,10.13
2018-09-16T00:22:12.874Z,10.20
2018-09-16T00:24:41.451Z,11.38
2018-09-16T00:27:10.121Z,9.80
2018-09-16T00:29:38.823Z,10.00
2018-09-16T00:32:13.024Z,11.80
2018-09-16T00:34:41.786Z,10.38
2018-09-16T00:37:10.439Z,10.08
2018-09-16T00:39:39.939Z,10.72
2018-09-16T00:42:08.719Z,10.05
2018-09-16T00:44:37.399Z,11.35
2018-09-16T00:47:06.181Z,10.48
2018-09-16T00:49:41.251Z,10.98
2018-09-16T00:52:10.057Z,11.28
2018-09-16T00:54:38.862Z,12.70
2018-09-16T00:57:07.497Z,11.65
2018-09-16T00:59:36.263Z,12.70
2018-09-16T01:02:05.062Z,11.45
2018-09-16T01:04:33.857Z,11.65
2018-09-16T01:07:02.472Z,11.30
2018-09-16T01:09:31.175Z,13.78
2018-09-16T01:11:59.987Z,12.93
2018-09-16T01:14:28.734Z,11.97
2018-09-16T01:16:57.431Z,11.50
2018-09-16T01:19:28.498Z,11.70
2018-09-16T01:21:57.163Z,10.85
2018-09-16T01:24:26.605Z,11.68
2018-09-16T01:26:55.275Z,11.00
2018-09-16T01:29:23.939Z,10.70
2018-09-16T01:31:52.951Z,12.35
2018-09-16T01:34:21.594Z,11.25
2018-09-16T01:36:50.171Z,11.65
2018-09-16T01:39:18.802Z,12.88
2018-09-16T01:41:47.419Z,12.85
2018-09-16T01:44:16.135Z,12.60
2018-09-16T01:46:44.766Z,14.23
2018-09-16T01:49:13.403Z,13.50
2018-09-16T01:51:42.057Z,13.30
2018-09-16T01:54:11.071Z,12.47
2018-09-16T01:56:40.084Z,12.90
2018-09-16T01:59:08.790Z,14.50
2018-09-16T02:01:37.435Z,12.95
2018-09-16T02:04:06.049Z,13.55
2018-09-16T02:06:34.624Z,13.90
2018-09-16T02:09:03.274Z,13.93
2018-09-16T02:11:31.890Z,14.10
2018-09-16T02:14:00.474Z,13.70
2018-09-16T02:16:29.027Z,12.95
2018-09-16T02:18:57.726Z,13.45
2018-09-16T02:21:26.333Z,14.70
2018-09-16T02:23:54.926Z,11.97
2018-09-16T02:26:23.566Z,14.58
2018-09-16T02:28:52.299Z,13.00
2018-09-16T02:31:21.086Z,13.45
2018-09-16T02:33:49.787Z,13.78
2018-09-16T02:36:18.412Z,14.95
2018-09-16T02:38:47.223Z,14.30
2018-09-16T02:41:15.830Z,14.10
2018-09-16T02:43:44.588Z,15.60
2018-09-16T02:46:13.237Z,14.73
2018-09-16T02:48:42.145Z,14.85
2018-09-16T02:51:10.750Z,16.30
2018-09-16T02:53:39.386Z,14.83
2018-09-16T02:56:08.315Z,14.50
2018-09-16T02:58:37.126Z,15.15
2018-09-16T03:01:05.795Z,15.58
2018-09-16T03:03:34.737Z,13.72
2018-09-16T03:06:03.339Z,15.43
2018-09-16T03:08:31.927Z,14.10
2018-09-16T03:11:00.530Z,15.32
2018-09-16T03:13:29.102Z,15.05
2018-09-16T03:15:57.753Z,15.25
2018-09-16T03:18:26.452Z,14.28
2018-09-16T03:20:55.182Z,13.78
2018-09-16T03:23:23.735Z,15.03
2018-09-16T03:25:52.505Z,16.57
2018-09-16T03:28:21.231Z,13.68
2018-09-16T03:30:49.826Z,15.88
2018-09-16T03:33:18.617Z,15.70
2018-09-16T03:35:47.256Z,15.85
2018-09-16T03:38:15.832Z,14.75
2018-09-16T03:40:44.494Z,14.55
2018-09-16T03:43:13.089Z,14.83
2018-09-16T03:45:41.915Z,14.75
2018-09-16T03:48:10.494Z,15.90
2018-09-16T03:50:39.190Z,15.18
2018-09-16T03:53:07.771Z,12.80
2018-09-16T03:55:36.529Z,13.75
2018-09-16T03:58:05.243Z,14.13
2018-09-16T04:00:33.980Z,15.35
2018-09-16T04:03:02.616Z,14.35
2018-09-16T04:05:31.241Z,15.28
2018-09-16T04:07:59.905Z,15.88
2018-09-16T04:10:28.566Z,14.23
2018-09-16T04:12:57.319Z,16.45
2018-09-16T04:15:25.940Z,16.52
2018-09-16T04:17:54.558Z,18.45
2018-09-16T04:20:23.285Z,17.55
2018-09-16T04:22:51.909Z,17.60
2018-09-16T04:25:20.510Z,16.42
2018-09-16T04:27:49.092Z,19.65
2018-09-16T04:30:17.742Z,17.10
2018-09-16T04:32:46.508Z,17.25
2018-09-16T04:35:15.244Z,16.05
2018-09-16T04:37:43.881Z,16.42
2018-09-16T04:40:12.459Z,17.30
2018-09-16T04:42:41.188Z,15.45
2018-09-16T04:45:09.937Z,16.25
2018-09-16T04:47:38.619Z,16.80
2018-09-16T04:50:07.341Z,16.05
2018-09-16T04:52:36.086Z,16.30
2018-09-16T04:55:04.753Z,16.00
2018-09-16T04:57:33.356Z,15.90
2018-09-16T05:00:02.009Z,16.30
2018-09-16T05:02:30.666Z,16.17
2018-09-16T05:04:59.301Z,17.40
2018-09-16T05:07:28.003Z,15.85
2018-09-16T05:09:56.744Z,15.85
2018-09-16T05:12:25.428Z,16.30
2018-09-16T05:14:54.094Z,16.75
2018-09-16T05:17:22.752Z,15.83
2018-09-16T05:19:51.469Z,15.68
2018-09-16T05:22:20.074Z,14.63
2018-09-16T05:24:49.087Z,14.70
2018-09-16T05:27:17.784Z,16.60
2018-09-16T05:29:46.497Z,15.58
2018-09-16T05:32:15.727Z,16.65
2018-09-16T05:34:44.480Z,17.90
2018-09-16T05:37:13.110Z,16.25
2018-09-16T05:39:41.746Z,18.80
2018-09-16T05:42:10.374Z,18.40
2018-09-16T05:44:39.773Z,17.48
2018-09-16T05:47:08.555Z,15.72
2018-09-16T05:49:37.279Z,16.12
2018-09-16T05:52:06.091Z,15.38
2018-09-16T05:54:34.854Z,14.45
2018-09-16T05:57:03.506Z,14.58
2018-09-16T05:59:32.224Z,14.03
2018-09-16T06:02:00.907Z,13.72
2018-09-16T06:04:29.828Z,13.45
2018-09-16T06:06:58.643Z,13.48
2018-09-16T06:09:27.341Z,15.55
2018-09-16T06:11:56.057Z,14.07
2018-09-16T06:14:24.747Z,12.40
2018-09-16T06:16:53.571Z,14.15
2018-09-16T06:19:22.196Z,14.95
2018-09-16T06:21:51.116Z,15.35
2018-09-16T06:24:19.719Z,13.80
2018-09-16T06:26:48.347Z,14.40
2018-09-16T06:29:17.033Z,13.20
2018-09-16T06:31:45.725Z,14.58
2018-09-16T06:34:14.538Z,14.10
2018-09-16T06:36:43.281Z,13.60
2018-09-16T06:39:15.312Z,13.35
2018-09-16T06:41:44.000Z,14.03
2018-09-16T06:44:12.715Z,12.35
2018-09-16T06:46:41.477Z,14.45
2018-09-16T06:49:10.094Z,14.47
2018-09-16T06:51:39.753Z,13.60
2018-09-16T06:54:08.385Z,13.32
2018-09-16T06:56:37.143Z,13.55
2018-09-16T06:59:05.996Z,13.40
2018-09-16T07:01:34.737Z,12.30
2018-09-16T07:04:03.323Z,12.98
2018-09-16T07:06:37.049Z,13.68
2018-09-16T07:09:09.822Z,13.10
2018-09-16T07:11:38.506Z,12.80
2018-09-16T07:14:07.639Z,12.15
2018-09-16T07:16:42.900Z,12.15
2018-09-16T07:19:11.747Z,11.88
2018-09-16T07:21:40.528Z,12.85
2018-09-16T07:24:09.176Z,12.60
2018-09-16T07:26:38.069Z,11.83
2018-09-16T07:29:06.676Z,11.00
2018-09-16T07:31:35.437Z,10.72
2018-09-16T07:34:04.201Z,11.33
2018-09-16T07:36:33.020Z,9.88
2018-09-16T07:39:01.716Z,11.43
2018-09-16T07:41:30.273Z,9.80
2018-09-16T07:43:58.869Z,10.47
2018-09-16T07:46:27.649Z,8.63
2018-09-16T07:48:56.335Z,9.87
2018-09-16T07:51:24.951Z,9.57
2018-09-16T07:53:53.685Z,9.40
2018-09-16T07:56:22.417Z,9.30
2018-09-16T07:58:50.928Z,8.50
2018-09-16T08:01:19.524Z,8.30
2018-09-16T08:03:48.181Z,8.53
2018-09-16T08:06:17.250Z,7.80
2018-09-16T08:08:46.853Z,7.40
2018-09-16T08:11:15.708Z,7.90
2018-09-16T08:13:44.424Z,8.60
2018-09-16T08:16:13.018Z,7.43
2018-09-16T08:18:41.737Z,8.10
2018-09-16T08:21:10.341Z,7.33
2018-09-16T08:23:39.207Z,8.13
2018-09-16T08:26:07.927Z,8.27
2018-09-16T08:28:37.182Z,7.60
2018-09-16T08:31:06.319Z,8.30
2018-09-16T08:33:34.931Z,6.80
2018-09-16T08:36:04.059Z,6.80
2018-09-16T08:38:32.590Z,6.00
2018-09-16T08:41:01.273Z,6.37
2018-09-16T08:43:29.918Z,5.80
2018-09-16T08:45:58.566Z,5.60
2018-09-16T08:48:27.203Z,5.97
2018-09-16T08:50:55.892Z,6.70
2018-09-16T08:53:24.624Z,5.60
2018-09-16T08:55:53.434Z,4.70
2018-09-16T08:58:22.316Z,5.37
2018-09-16T09:00:50.840Z,4.40
2018-09-16T09:03:19.834Z,4.50
2018-09-16T09:05:48.390Z,4.77
2018-09-16T09:08:17.038Z,4.33
2018-09-16T09:10:45.937Z,4.40
2018-09-16T09:13:14.794Z,3.73
2018-09-16T09:15:43.635Z,3.90
2018-09-16T09:18:12.718Z,3.60
2018-09-16T09:20:41.618Z,3.87
2018-09-16T09:23:10.163Z,2.77
2018-09-16T09:25:38.927Z,3.60
2018-09-16T09:28:07.647Z,3.70
2018-09-16T09:30:36.281Z,2.43
2018-09-16T09:33:04.953Z,2.90
2018-09-16T09:35:33.672Z,3.57
2018-09-16T09:38:02.442Z,3.00
2018-09-16T09:40:31.073Z,2.50
2018-09-16T09:42:59.762Z,2.23
2018-09-16T09:45:28.537Z,2.10
2018-09-16T09:47:57.428Z,2.40
2018-09-16T09:50:26.037Z,2.80
2018-09-16T09:52:54.664Z,3.40
2018-09-16T09:55:23.239Z,3.07
2018-09-16T09:57:51.915Z,2.20
2018-09-16T10:00:25.909Z,1.97
2018-09-16T10:02:54.541Z,1.90
2018-09-16T10:05:23.192Z,2.43
2018-09-16T10:07:51.784Z,2.37
2018-09-16T10:10:20.363Z,3.40
2018-09-16T10:12:49.083Z,2.60
2018-09-16T10:15:17.759Z,2.50
2018-09-16T10:17:46.363Z,2.50
2018-09-16T10:20:15.039Z,2.37
2018-09-16T10:22:43.668Z,1.90
2018-09-16T10:25:12.901Z,2.17
2018-09-16T10:27:41.534Z,2.00
2018-09-16T10:30:10.185Z,2.93
2018-09-16T10:32:38.795Z,2.10
2018-09-16T10:35:07.420Z,2.83
2018-09-16T10:37:36.069Z,2.40
2018-09-16T10:40:04.829Z,1.90
2018-09-16T10:42:33.489Z,2.27
2018-09-16T10:45:02.382Z,2.10
2018-09-16T10:47:31.102Z,2.20
2018-09-16T10:49:59.770Z,2.60
2018-09-16T10:52:29.261Z,1.83
2018-09-16T10:54:58.007Z,2.37
2018-09-16T10:57:26.884Z,1.63
2018-09-16T10:59:55.538Z,1.60
2018-09-16T11:02:24.265Z,1.70
2018-09-16T11:04:53.010Z,1.60
2018-09-16T11:07:21.824Z,2.17
2018-09-16T11:09:50.735Z,1.80
2018-09-16T11:12:20.010Z,1.40
2018-09-16T11:14:48.773Z,1.80
2018-09-16T11:17:17.646Z,1.90
2018-09-16T11:19:46.355Z,1.57
2018-09-16T11:22:15.695Z,1.30
2018-09-16T11:24:44.329Z,1.93
2018-09-16T11:27:12.910Z,1.60
2018-09-16T11:29:41.612Z,1.97
2018-09-16T11:32:10.531Z,1.63
2018-09-16T11:34:39.254Z,1.40
2018-09-16T11:37:07.961Z,2.03
2018-09-16T11:39:36.621Z,1.93
2018-09-16T11:42:05.319Z,1.30
2018-09-16T11:44:33.944Z,2.43
2018-09-16T11:47:02.809Z,1.90
2018-09-16T11:49:31.475Z,2.07
2018-09-16T11:52:00.374Z,1.50
2018-09-16T11:54:28.963Z,1.80
2018-09-16T11:56:57.503Z,1.33
2018-09-16T11:59:26.271Z,1.40
2018-09-16T12:01:54.968Z,1.13
2018-09-16T12:04:23.960Z,1.23
2018-09-16T12:06:52.667Z,1.43
2018-09-16T12:09:21.312Z,1.90
2018-09-16T12:11:49.917Z,1.13
2018-09-16T12:14:18.602Z,1.73
2018-09-16T12:16:47.353Z,1.63
2018-09-16T12:19:15.917Z,1.30
2018-09-16T12:21:44.665Z,1.63
2018-09-16T12:24:13.346Z,2.27
2018-09-16T12:26:42.091Z,1.20
2018-09-16T12:29:10.860Z,1.97
2018-09-16T12:31:39.463Z,2.20
2018-09-16T12:34:08.249Z,1.30
2018-09-16T12:36:36.928Z,1.63
2018-09-16T12:39:08.954Z,1.30
2018-09-16T12:41:37.693Z,1.23
2018-09-16T12:44:06.427Z,1.43
2018-09-16T12:46:35.211Z,2.07
2018-09-16T12:49:03.901Z,1.70
2018-09-16T12:51:32.706Z,1.53
2018-09-16T12:54:01.903Z,1.40
2018-09-16T12:56:30.580Z,1.27
2018-09-16T12:58:59.283Z,1.40
2018-09-16T13:01:28.078Z,1.60
2018-09-16T13:03:56.890Z,1.20
2018-09-16T13:06:25.726Z,1.47
2018-09-16T13:08:54.357Z,1.47
2018-09-16T13:11:29.197Z,1.53
2018-09-16T13:13:58.031Z,1.20
2018-09-16T13:16:26.728Z,1.67
2018-09-16T13:18:55.322Z,1.63
2018-09-16T13:21:24.166Z,1.97
2018-09-16T13:23:52.855Z,1.50
2018-09-16T13:26:21.714Z,2.23
2018-09-16T13:28:50.436Z,1.90
2018-09-16T13:31:19.016Z,1.60
2018-09-16T13:33:47.693Z,1.60
2018-09-16T13:36:16.378Z,1.90
2018-09-16T13:38:45.120Z,1.10
2018-09-16T13:41:13.763Z,1.50
2018-09-16T13:43:42.335Z,1.43
2018-09-16T13:46:11.339Z,1.50
2018-09-16T13:48:40.185Z,1.30
2018-09-16T13:51:09.229Z,1.90
2018-09-16T13:53:38.021Z,1.53
2018-09-16T13:56:07.115Z,1.67
2018-09-16T13:58:35.810Z,2.07
2018-09-16T14:01:04.716Z,1.70
2018-09-16T14:03:33.495Z,2.43
2018-09-16T14:06:02.382Z,1.40
2018-09-16T14:08:31.148Z,1.30
2018-09-16T14:11:00.001Z,1.60
2018-09-16T14:13:29.678Z,2.13
2018-09-16T14:15:58.389Z,1.13
2018-09-16T14:18:26.974Z,1.50
2018-09-16T14:20:55.587Z,2.13
2018-09-16T14:23:25.425Z,1.40
2018-09-16T14:25:55.034Z,1.70
2018-09-16T14:28:23.860Z,2.10
2018-09-16T14:30:52.449Z,2.00
2018-09-16T14:33:21.138Z,1.00
2018-09-16T14:35:49.708Z,1.53
2018-09-16T14:38:18.307Z,1.50
2018-09-16T14:40:47.055Z,1.80
2018-09-16T14:43:15.649Z,1.50
2018-09-16T14:45:44.260Z,1.40
2018-09-16T14:48:12.926Z,1.47
2018-09-16T14:50:41.938Z,1.53
2018-09-16T14:53:10.592Z,1.47
2018-09-16T14:55:39.397Z,1.50
2018-09-16T14:58:08.084Z,1.60
2018-09-16T15:00:36.813Z,1.90
2018-09-16T15:03:05.529Z,1.77
2018-09-16T15:05:34.289Z,1.63
2018-09-16T15:08:02.917Z,2.37
2018-09-16T15:10:31.701Z,1.90
2018-09-16T15:13:00.488Z,1.23
2018-09-16T15:15:29.264Z,1.57
2018-09-16T15:17:58.063Z,1.47
2018-09-16T15:20:26.910Z,1.43
2018-09-16T15:22:55.700Z,1.27
2018-09-16T15:25:24.447Z,1.50
2018-09-16T15:27:53.347Z,1.90
2018-09-16T15:30:22.903Z,1.57
2018-09-16T15:32:51.644Z,1.27
2018-09-16T15:35:20.482Z,1.47
2018-09-16T15:37:49.206Z,1.90
2018-09-16T15:40:18.114Z,2.20
2018-09-16T15:42:46.957Z,1.90
2018-09-16T15:45:16.039Z,1.57
2018-09-16T15:47:44.800Z,2.20
2018-09-16T15:50:14.572Z,1.20
2018-09-16T15:52:43.390Z,1.60
2018-09-16T15:55:12.221Z,1.60
2018-09-16T15:57:40.830Z,1.73
2018-09-16T16:00:09.960Z,1.90
2018-09-16T16:02:38.584Z,2.00
2018-09-16T16:05:07.305Z,1.83
2018-09-16T16:07:36.053Z,1.70
2018-09-16T16:10:04.914Z,1.93
2018-09-16T16:12:33.495Z,1.40
2018-09-16T16:15:02.171Z,1.80
2018-09-16T16:17:30.822Z,2.00
2018-09-16T16:19:59.620Z,2.37
2018-09-16T16:22:28.312Z,2.13
2018-09-16T16:24:56.889Z,1.70
2018-09-16T16:27:25.583Z,2.23
2018-09-16T16:29:54.272Z,6.37
2018-09-16T16:32:23.035Z,2.13
2018-09-16T16:34:52.033Z,1.80
2018-09-16T16:37:21.190Z,2.00
2018-09-16T16:39:49.817Z,2.20
2018-09-16T16:42:18.482Z,2.60
2018-09-16T16:44:48.000Z,2.30
2018-09-16T16:47:16.649Z,2.00
2018-09-16T16:49:45.359Z,2.07
2018-09-16T16:52:14.257Z,3.00
2018-09-16T16:54:43.081Z,3.87
2018-09-16T16:57:11.772Z,2.33
2018-09-16T16:59:40.533Z,2.73
2018-09-16T17:02:09.256Z,2.97
2018-09-16T17:04:37.978Z,2.50
2018-09-16T17:07:07.022Z,2.87
2018-09-16T17:09:35.822Z,2.67
2018-09-16T17:12:04.603Z,3.87
2018-09-16T17:14:33.229Z,2.50
2018-09-16T17:17:01.962Z,2.07
2018-09-16T17:19:30.681Z,2.17
2018-09-16T17:22:06.411Z,2.37
2018-09-16T17:24:35.181Z,2.03
2018-09-16T17:27:04.012Z,3.50
2018-09-16T17:29:32.690Z,2.43
2018-09-16T17:32:01.467Z,3.20
2018-09-16T17:34:30.204Z,3.87
2018-09-16T17:36:58.830Z,3.23
2018-09-16T17:39:27.666Z,2.93
2018-09-16T17:41:56.319Z,3.63
2018-09-16T17:44:25.082Z,2.63
2018-09-16T17:46:54.319Z,3.33
2018-09-16T17:49:23.595Z,2.47
2018-09-16T17:51:52.451Z,2.07
2018-09-16T17:54:21.210Z,2.27
2018-09-16T17:56:50.095Z,2.40
2018-09-16T17:59:18.839Z,2.87
2018-09-16T18:01:47.750Z,2.83
2018-09-16T18:04:16.630Z,2.33
2018-09-16T18:06:45.284Z,21.67
2018-09-16T18:09:14.010Z,13.50
2018-09-16T18:11:42.652Z,4.30
2018-09-16T18:14:11.401Z,2.73
2018-09-16T18:16:40.087Z,3.80
2018-09-16T18:19:09.380Z,3.57
2018-09-16T18:21:38.050Z,3.47
2018-09-16T18:24:06.708Z,3.67
2018-09-16T18:26:35.433Z,3.57
2018-09-16T18:29:04.776Z,3.00
2018-09-16T18:31:33.357Z,4.27
2018-09-16T18:34:01.969Z,4.30
2018-09-16T18:36:30.600Z,4.87
2018-09-16T18:38:59.391Z,4.20
2018-09-16T18:41:28.010Z,4.50
2018-09-16T18:43:56.611Z,4.30
2018-09-16T18:46:25.222Z,4.07
2018-09-16T18:48:53.959Z,3.60
2018-09-16T18:51:24.087Z,3.73
2018-09-16T18:53:52.762Z,3.30
2018-09-16T18:56:21.371Z,3.67
2018-09-16T18:58:50.095Z,5.23
2018-09-16T19:01:18.754Z,12.80
2018-09-16T19:03:47.501Z,13.90
2018-09-16T19:06:16.191Z,7.80
2018-09-16T19:08:44.881Z,8.87
2018-09-16T19:11:13.487Z,7.67
2018-09-16T19:13:42.126Z,5.60
2018-09-16T19:16:10.718Z,8.30
2018-09-16T19:18:39.391Z,6.57
2018-09-16T19:21:08.398Z,6.33
2018-09-16T19:23:37.144Z,5.30
2018-09-16T19:26:05.813Z,4.90
2018-09-16T19:28:34.579Z,5.17
2018-09-16T19:31:03.287Z,4.67
2018-09-16T19:33:32.268Z,4.40
2018-09-16T19:36:00.901Z,5.00
2018-09-16T19:38:29.790Z,3.60
2018-09-16T19:40:58.511Z,3.00
2018-09-16T19:43:27.201Z,4.73
2018-09-16T19:45:55.959Z,4.03
2018-09-16T19:48:24.737Z,4.37
2018-09-16T19:50:53.489Z,3.90
2018-09-16T19:53:22.379Z,3.23
2018-09-16T19:55:50.968Z,3.80
2018-09-16T19:58:19.902Z,3.90
2018-09-16T20:00:48.624Z,4.00
2018-09-16T20:03:18.273Z,5.30
2018-09-16T20:05:47.113Z,5.50
2018-09-16T20:08:15.721Z,4.97
2018-09-16T20:10:44.303Z,3.70
2018-09-16T20:13:12.932Z,3.77
2018-09-16T20:15:42.304Z,3.93
2018-09-16T20:18:11.035Z,4.17
2018-09-16T20:20:42.696Z,3.50
2018-09-16T20:23:11.320Z,4.80
2018-09-16T20:25:39.978Z,4.37
2018-09-16T20:28:09.281Z,3.27
2018-09-16T20:30:38.060Z,4.70
2018-09-16T20:33:06.771Z,4.27
2018-09-16T20:35:35.346Z,4.43
2018-09-16T20:38:03.953Z,3.93
2018-09-16T20:40:32.577Z,3.47
2018-09-16T20:43:01.411Z,4.67
2018-09-16T20:45:30.058Z,4.67
2018-09-16T20:47:58.825Z,4.50
2018-09-16T20:50:27.543Z,4.30
2018-09-16T20:52:56.159Z,4.80
2018-09-16T20:55:24.796Z,3.97
2018-09-16T20:57:53.437Z,5.00
2018-09-16T21:00:22.196Z,5.10
2018-09-16T21:02:50.839Z,5.90
2018-09-16T21:05:19.608Z,5.30
2018-09-16T21:07:48.342Z,5.47
2018-09-16T21:10:17.076Z,5.90
2018-09-16T21:12:46.109Z,5.27
2018-09-16T21:15:14.755Z,6.70
2018-09-16T21:17:43.412Z,5.20
2018-09-16T21:20:12.017Z,6.30
2018-09-16T21:22:40.702Z,4.73
2018-09-16T21:25:09.370Z,5.57
2018-09-16T21:27:38.400Z,6.07
2018-09-16T21:30:07.173Z,5.83
2018-09-16T21:32:35.702Z,5.20
2018-09-16T21:35:04.540Z,5.20
2018-09-16T21:37:33.239Z,7.37
2018-09-16T21:40:01.942Z,6.33
2018-09-16T21:42:30.667Z,5.33
2018-09-16T21:44:59.244Z,4.90
2018-09-16T21:47:28.060Z,4.80
2018-09-16T21:49:56.702Z,4.90
2018-09-16T21:52:25.343Z,5.50
2018-09-16T21:54:54.047Z,5.40
2018-09-16T21:57:22.689Z,5.10
2018-09-16T21:59:51.437Z,5.23
2018-09-16T22:02:20.126Z,4.97
2018-09-16T22:04:48.858Z,4.50
2018-09-16T22:07:17.497Z,6.03
2018-09-16T22:09:46.081Z,4.90
2018-09-16T22:12:14.801Z,5.07
2018-09-16T22:14:43.584Z,5.30
2018-09-16T22:17:12.251Z,5.90
2018-09-16T22:19:40.936Z,6.10
2018-09-16T22:22:09.595Z,6.80
2018-09-16T22:24:38.275Z,5.70
2018-09-16T22:27:06.945Z,6.13
2018-09-16T22:29:35.606Z,6.28
2018-09-16T22:32:04.285Z,6.23
2018-09-16T22:34:32.910Z,5.77
2018-09-16T22:37:01.548Z,6.03
2018-09-16T22:39:30.252Z,5.57
2018-09-16T22:41:58.892Z,5.60
2018-09-16T22:44:27.622Z,5.90
2018-09-16T22:46:56.261Z,5.63
2018-09-16T22:49:24.983Z,6.17
2018-09-16T22:51:53.665Z,6.50
2018-09-16T22:54:22.330Z,6.17
2018-09-16T22:56:51.031Z,5.30
2018-09-16T22:59:19.657Z,5.70
2018-09-16T23:01:48.318Z,6.03
2018-09-16T23:04:16.985Z,6.50
2018-09-16T23:06:45.676Z,5.62
2018-09-16T23:09:14.620Z,5.85
2018-09-16T23:11:44.634Z,5.45
2018-09-16T23:14:13.303Z,5.67
2018-09-16T23:16:42.415Z,6.67
2018-09-16T23:19:11.081Z,5.40
2018-09-16T23:21:39.836Z,5.37
2018-09-16T23:24:08.931Z,6.45
2018-09-16T23:26:37.584Z,5.70
2018-09-16T23:29:06.359Z,6.40
2018-09-16T23:31:41.944Z,5.25
2018-09-16T23:34:10.499Z,6.00
2018-09-16T23:36:39.184Z,5.80
2018-09-16T23:39:08.994Z,5.35
2018-09-16T23:41:37.649Z,5.45
2018-09-16T23:44:06.376Z,5.45
2018-09-16T23:46:35.013Z,5.95
2018-09-16T23:49:03.639Z,5.70
2018-09-16T23:51:32.389Z,6.10
2018-09-16T23:54:00.961Z,6.35
2018-09-16T23:56:29.508Z,5.75
2018-09-16T23:58:58.151Z,6.65
